Time;durP1;ratioP1;P1;durP2;ratioP2;P2;SDS_P1;SDS_P2;PMS_P1;PMS_P2;Temp;Humidity;BMP_temperature;BMP_pressure;BME280_temperature;BME280_humidity;BME280_pressure;Samples;Min_cycle;Max_cycle;Signal;HPM_P1;HPM_P2
2021/09/13 00:01:10;;;;;;;1.96;1.80;;;;;;;21.27;72.95;100598.97;;;;-54
2021/09/13 00:04:10;;;;;;;2.00;1.80;;;;;;;21.27;73.00;100594.87;;;;-53
2021/09/13 00:07:10;;;;;;;2.11;1.91;;;;;;;21.27;72.90;100593.84;;;;-53
2021/09/13 00:10:10;;;;;;;1.95;1.85;;;;;;;21.26;72.94;100594.15;;;;-52
2021/09/13 00:13:10;;;;;;;1.95;1.83;;;;;;;21.25;72.90;100585.11;;;;-51
2021/09/13 00:16:10;;;;;;;1.97;1.82;;;;;;;21.25;72.96;100585.58;;;;-51
2021/09/13 00:19:10;;;;;;;1.83;1.73;;;;;;;21.26;72.92;100588.61;;;;-51
2021/09/13 00:22:10;;;;;;;1.92;1.77;;;;;;;21.25;72.91;100589.25;;;;-57
2021/09/13 00:25:10;;;;;;;2.01;1.87;;;;;;;21.24;72.92;100589.09;;;;-51
2021/09/13 00:28:10;;;;;;;2.25;1.99;;;;;;;21.24;72.94;100587.63;;;;-51
2021/09/13 00:31:10;;;;;;;2.13;1.94;;;;;;;21.23;72.88;100587.31;;;;-51
2021/09/13 00:34:10;;;;;;;3.73;1.83;;;;;;;21.23;72.90;100589.32;;;;-52
2021/09/13 00:37:10;;;;;;;2.05;1.80;;;;;;;21.23;72.95;100578.98;;;;-54
2021/09/13 00:40:10;;;;;;;2.19;2.00;;;;;;;21.23;72.91;100576.12;;;;-52
2021/09/13 00:43:10;;;;;;;2.02;1.90;;;;;;;21.22;72.88;100572.63;;;;-51
2021/09/13 00:46:10;;;;;;;2.10;1.90;;;;;;;21.21;72.83;100573.05;;;;-53
2021/09/13 00:49:10;;;;;;;2.24;1.78;;;;;;;21.21;72.92;100567.18;;;;-53
2021/09/13 00:52:10;;;;;;;2.42;2.00;;;;;;;21.21;72.99;100569.14;;;;-52
2021/09/13 00:55:10;;;;;;;1.92;1.82;;;;;;;21.20;72.95;100565.45;;;;-54
2021/09/13 00:58:10;;;;;;;2.17;1.90;;;;;;;21.19;72.92;100562.28;;;;-54
2021/09/13 01:01:10;;;;;;;2.20;2.00;;;;;;;21.20;72.91;100562.60;;;;-57
2021/09/13 01:04:10;;;;;;;1.93;1.78;;;;;;;21.19;72.86;100557.80;;;;-51
2021/09/13 01:07:10;;;;;;;2.36;1.86;;;;;;;21.19;72.96;100558.30;;;;-52
2021/09/13 01:10:10;;;;;;;2.03;1.87;;;;;;;21.18;72.85;100554.78;;;;-51
2021/09/13 01:13:10;;;;;;;2.05;1.89;;;;;;;21.18;72.88;100558.44;;;;-57
2021/09/13 01:16:10;;;;;;;1.92;1.82;;;;;;;21.18;72.98;100563.41;;;;-57
2021/09/13 01:19:10;;;;;;;2.12;2.00;;;;;;;21.17;72.91;100564.16;;;;-54
2021/09/13 01:22:10;;;;;;;2.11;1.91;;;;;;;21.17;72.99;100564.48;;;;-51
2021/09/13 01:25:10;;;;;;;2.04;1.91;;;;;;;21.17;72.94;100564.48;;;;-51
2021/09/13 01:28:10;;;;;;;2.06;1.90;;;;;;;21.17;72.89;100568.07;;;;-53
2021/09/13 01:31:10;;;;;;;2.15;1.93;;;;;;;21.16;72.93;100573.75;;;;-51
2021/09/13 01:34:10;;;;;;;2.19;1.99;;;;;;;21.15;72.85;100567.09;;;;-51
2021/09/13 01:37:10;;;;;;;2.58;1.77;;;;;;;21.15;72.85;100563.02;;;;-51
2021/09/13 01:40:10;;;;;;;1.90;1.80;;;;;;;21.14;72.92;100555.17;;;;-54
2021/09/13 01:43:10;;;;;;;2.13;1.93;;;;;;;21.15;72.88;100558.21;;;;-54
2021/09/13 01:46:10;;;;;;;1.89;1.79;;;;;;;21.15;72.89;100559.52;;;;-54
2021/09/13 01:49:10;;;;;;;2.01;1.83;;;;;;;21.14;72.96;100556.23;;;;-52
2021/09/13 01:52:10;;;;;;;2.13;1.91;;;;;;;21.14;72.96;100551.67;;;;-57
2021/09/13 01:55:10;;;;;;;2.20;2.00;;;;;;;21.14;72.89;100549.55;;;;-52
2021/09/13 01:58:10;;;;;;;2.17;1.87;;;;;;;21.13;72.92;100550.14;;;;-53
2021/09/13 02:01:10;;;;;;;2.45;1.89;;;;;;;21.13;72.90;100552.26;;;;-53
2021/09/13 02:04:10;;;;;;;2.17;1.97;;;;;;;21.12;72.87;100552.31;;;;-51
2021/09/13 02:07:10;;;;;;;2.18;1.98;;;;;;;21.12;72.89;100545.55;;;;-53
2021/09/13 02:10:10;;;;;;;1.85;1.75;;;;;;;21.12;72.91;100544.66;;;;-51
2021/09/13 02:13:10;;;;;;;2.02;1.91;;;;;;;21.12;72.91;100539.44;;;;-53
2021/09/13 02:16:10;;;;;;;1.84;1.74;;;;;;;21.11;72.89;100537.25;;;;-57
2021/09/13 02:19:10;;;;;;;2.10;1.90;;;;;;;21.11;72.91;100536.61;;;;-57
2021/09/13 02:22:10;;;;;;;2.02;1.92;;;;;;;21.10;72.90;100537.08;;;;-57
2021/09/13 02:25:10;;;;;;;2.05;1.95;;;;;;;21.10;72.96;100537.72;;;;-57
2021/09/13 02:28:10;;;;;;;2.10;2.00;;;;;;;21.10;72.94;100530.40;;;;-57
2021/09/13 02:31:10;;;;;;;2.05;1.95;;;;;;;21.09;72.97;100530.81;;;;-57
2021/09/13 02:34:10;;;;;;;1.88;1.78;;;;;;;21.09;72.95;100529.27;;;;-51
2021/09/13 02:37:10;;;;;;;2.20;2.00;;;;;;;21.09;72.95;100531.87;;;;-51
2021/09/13 02:40:10;;;;;;;2.11;1.97;;;;;;;21.08;72.87;100535.60;;;;-57
2021/09/13 02:43:10;;;;;;;2.15;1.95;;;;;;;21.08;72.91;100536.53;;;;-57
2021/09/13 02:46:12;;;;;;;1.95;1.85;;;;;;;21.08;72.91;100538.81;;;;-53
2021/09/13 02:49:10;;;;;;;2.01;1.87;;;;;;;21.07;73.03;100539.94;;;;-52
2021/09/13 02:52:10;;;;;;;2.06;1.91;;;;;;;21.08;72.99;100540.98;;;;-53
2021/09/13 02:55:10;;;;;;;1.82;1.72;;;;;;;21.07;72.93;100542.79;;;;-53
2021/09/13 02:58:10;;;;;;;1.81;1.71;;;;;;;21.07;72.89;100541.89;;;;-53
2021/09/13 03:01:10;;;;;;;1.99;1.89;;;;;;;21.06;72.86;100538.53;;;;-54
2021/09/13 03:04:10;;;;;;;2.24;2.04;;;;;;;21.07;72.91;100537.98;;;;-53
2021/09/13 03:07:10;;;;;;;1.93;1.83;;;;;;;21.06;72.96;100540.90;;;;-52
2021/09/13 03:10:10;;;;;;;2.03;1.86;;;;;;;21.05;72.90;100538.30;;;;-53
2021/09/13 03:13:10;;;;;;;1.98;1.88;;;;;;;21.05;72.98;100537.57;;;;-53
2021/09/13 03:16:10;;;;;;;2.06;1.96;;;;;;;21.05;72.97;100542.78;;;;-52
2021/09/13 03:19:10;;;;;;;2.00;1.90;;;;;;;21.06;72.94;100545.72;;;;-58
2021/09/13 03:22:10;;;;;;;2.65;1.95;;;;;;;21.05;72.91;100542.14;;;;-57
2021/09/13 03:25:10;;;;;;;2.12;1.93;;;;;;;21.04;72.97;100538.78;;;;-54
2021/09/13 03:28:10;;;;;;;2.10;1.90;;;;;;;21.04;72.91;100542.94;;;;-57
2021/09/13 03:31:10;;;;;;;1.94;1.84;;;;;;;21.04;72.96;100548.91;;;;-57
2021/09/13 03:34:10;;;;;;;2.16;2.01;;;;;;;21.03;72.93;100548.90;;;;-53
2021/09/13 03:37:10;;;;;;;2.07;1.87;;;;;;;21.03;72.92;100547.84;;;;-52
2021/09/13 03:40:10;;;;;;;1.82;1.72;;;;;;;21.02;72.92;100551.19;;;;-52
2021/09/13 03:43:10;;;;;;;1.99;1.89;;;;;;;21.02;72.91;100547.66;;;;-52
2021/09/13 03:46:10;;;;;;;1.86;1.76;;;;;;;21.02;72.97;100550.05;;;;-57
2021/09/13 03:49:10;;;;;;;1.93;1.83;;;;;;;21.03;72.94;100551.27;;;;-52
2021/09/13 03:52:10;;;;;;;2.17;1.97;;;;;;;21.02;72.88;100552.47;;;;-53
2021/09/13 03:55:10;;;;;;;1.90;1.80;;;;;;;21.02;72.82;100553.13;;;;-57
2021/09/13 03:58:10;;;;;;;2.15;1.98;;;;;;;21.02;72.80;100555.65;;;;-52
2021/09/13 04:01:10;;;;;;;1.97;1.87;;;;;;;21.02;72.83;100557.28;;;;-52
2021/09/13 04:04:10;;;;;;;1.94;1.84;;;;;;;21.01;72.88;100555.41;;;;-54
2021/09/13 04:07:19;;;;;;;2.05;1.92;;;;;;;21.01;72.93;100555.57;;;;-54
2021/09/13 04:10:18;;;;;;;2.15;1.95;;;;;;;21.00;72.79;100555.09;;;;-54
2021/09/13 04:13:10;;;;;;;2.17;1.87;;;;;;;21.00;72.89;100557.86;;;;-54
2021/09/13 04:16:10;;;;;;;2.11;1.91;;;;;;;21.00;72.80;100562.67;;;;-54
2021/09/13 04:19:10;;;;;;;2.15;1.93;;;;;;;21.00;72.76;100563.81;;;;-54
2021/09/13 04:22:10;;;;;;;2.08;1.90;;;;;;;21.00;72.79;100559.91;;;;-53
2021/09/13 04:25:10;;;;;;;2.09;1.89;;;;;;;20.99;72.83;100559.73;;;;-53
2021/09/13 04:28:10;;;;;;;2.01;1.87;;;;;;;20.99;72.80;100562.41;;;;-57
2021/09/13 04:31:10;;;;;;;2.13;2.01;;;;;;;20.99;72.75;100562.00;;;;-57
2021/09/13 04:34:10;;;;;;;2.15;1.87;;;;;;;20.99;72.75;100559.08;;;;-52
2021/09/13 04:37:10;;;;;;;2.00;1.90;;;;;;;20.99;72.75;100565.35;;;;-51
2021/09/13 04:40:10;;;;;;;1.99;1.89;;;;;;;20.98;72.80;100563.31;;;;-52
2021/09/13 04:43:10;;;;;;;2.12;1.92;;;;;;;20.98;72.77;100561.03;;;;-51
2021/09/13 04:46:10;;;;;;;1.97;1.87;;;;;;;20.98;72.77;100561.61;;;;-51
2021/09/13 04:49:10;;;;;;;1.90;1.80;;;;;;;20.98;72.83;100559.48;;;;-51
2021/09/13 04:52:10;;;;;;;1.96;1.86;;;;;;;20.98;72.88;100555.98;;;;-52
2021/09/13 04:55:10;;;;;;;1.92;1.82;;;;;;;20.98;72.79;100556.05;;;;-52
2021/09/13 04:58:10;;;;;;;2.03;1.90;;;;;;;20.98;72.81;100559.17;;;;-52
2021/09/13 05:01:10;;;;;;;2.01;1.89;;;;;;;20.97;72.80;100562.73;;;;-57
2021/09/13 05:04:11;;;;;;;2.03;1.93;;;;;;;20.97;72.79;100557.27;;;;-57
2021/09/13 05:07:10;;;;;;;2.04;1.91;;;;;;;20.97;72.74;100555.41;;;;-57
2021/09/13 05:10:10;;;;;;;1.88;1.78;;;;;;;20.97;72.73;100556.62;;;;-57
2021/09/13 05:13:10;;;;;;;2.09;1.90;;;;;;;20.97;72.79;100553.13;;;;-54
2021/09/13 05:16:10;;;;;;;2.03;1.92;;;;;;;20.96;72.83;100559.33;;;;-53
2021/09/13 05:19:10;;;;;;;2.02;1.90;;;;;;;20.96;72.78;100558.09;;;;-54
2021/09/13 05:22:10;;;;;;;1.98;1.83;;;;;;;20.97;72.78;100560.62;;;;-53
2021/09/13 05:25:10;;;;;;;1.88;1.78;;;;;;;20.95;72.88;100560.61;;;;-57
2021/09/13 05:28:10;;;;;;;1.92;1.82;;;;;;;20.95;72.90;100558.66;;;;-57
2021/09/13 05:31:10;;;;;;;1.97;1.85;;;;;;;20.95;72.81;100563.30;;;;-57
2021/09/13 05:34:10;;;;;;;1.85;1.75;;;;;;;20.94;72.81;100559.23;;;;-57
2021/09/13 05:37:10;;;;;;;1.95;1.85;;;;;;;20.94;72.86;100555.98;;;;-57
2021/09/13 05:40:10;;;;;;;1.94;1.83;;;;;;;20.94;72.92;100557.53;;;;-54
2021/09/13 05:43:10;;;;;;;1.91;1.81;;;;;;;20.94;72.89;100550.94;;;;-53
2021/09/13 05:46:10;;;;;;;2.01;1.91;;;;;;;20.93;72.89;100549.44;;;;-54
2021/09/13 05:49:12;;;;;;;1.93;1.83;;;;;;;20.94;72.91;100546.70;;;;-54
2021/09/13 05:52:10;;;;;;;1.90;1.80;;;;;;;20.94;72.82;100549.80;;;;-54
2021/09/13 05:55:10;;;;;;;2.05;1.95;;;;;;;20.94;72.84;100550.44;;;;-57
2021/09/13 05:58:10;;;;;;;1.97;1.87;;;;;;;20.94;72.89;100553.76;;;;-57
2021/09/13 06:01:10;;;;;;;1.92;1.82;;;;;;;20.94;72.81;100554.11;;;;-57
2021/09/13 06:04:10;;;;;;;1.99;1.89;;;;;;;20.93;72.87;100561.17;;;;-52
2021/09/13 06:07:11;;;;;;;2.00;1.90;;;;;;;20.93;72.89;100562.73;;;;-52
2021/09/13 06:10:10;;;;;;;1.87;1.77;;;;;;;20.93;72.85;100569.73;;;;-52
2021/09/13 06:13:11;;;;;;;1.92;1.82;;;;;;;20.93;72.86;100575.93;;;;-53
2021/09/13 06:16:10;;;;;;;2.36;1.90;;;;;;;20.93;72.89;100580.98;;;;-52
2021/09/13 06:19:10;;;;;;;1.89;1.79;;;;;;;20.93;72.89;100583.99;;;;-53
2021/09/13 06:22:10;;;;;;;1.95;1.79;;;;;;;20.93;72.88;100588.30;;;;-52
2021/09/13 06:25:10;;;;;;;2.28;2.08;;;;;;;20.92;72.87;100599.97;;;;-52
2021/09/13 06:28:10;;;;;;;2.11;1.97;;;;;;;20.92;72.87;100605.17;;;;-54
2021/09/13 06:31:10;;;;;;;2.01;1.91;;;;;;;20.92;72.80;100609.98;;;;-52
2021/09/13 06:34:15;;;;;;;2.10;1.89;;;;;;;20.92;72.88;100608.77;;;;-52
2021/09/13 06:37:10;;;;;;;2.18;2.05;;;;;;;20.92;72.88;100609.34;;;;-57
2021/09/13 06:40:10;;;;;;;2.11;1.99;;;;;;;20.92;72.83;100612.35;;;;-57
2021/09/13 06:43:14;;;;;;;1.95;1.81;;;;;;;20.92;72.86;100612.90;;;;-57
2021/09/13 06:46:19;;;;;;;2.03;1.93;;;;;;;20.92;72.82;100611.62;;;;-57
2021/09/13 06:49:10;;;;;;;1.91;1.81;;;;;;;20.91;72.88;100616.33;;;;-57
2021/09/13 06:52:10;;;;;;;2.17;1.97;;;;;;;20.90;72.87;100615.28;;;;-54
2021/09/13 06:55:10;;;;;;;2.05;1.74;;;;;;;20.91;72.87;100615.92;;;;-54
2021/09/13 06:58:10;;;;;;;2.10;2.00;;;;;;;20.91;72.84;100618.28;;;;-57
2021/09/13 07:01:10;;;;;;;2.09;1.89;;;;;;;20.91;72.81;100616.16;;;;-57
2021/09/13 07:04:10;;;;;;;2.35;1.81;;;;;;;20.91;72.80;100620.73;;;;-54
2021/09/13 07:07:10;;;;;;;2.00;1.90;;;;;;;20.91;72.79;100621.13;;;;-54
2021/09/13 07:10:10;;;;;;;1.99;1.89;;;;;;;20.90;72.88;100620.81;;;;-54
2021/09/13 07:13:10;;;;;;;2.01;1.90;;;;;;;20.90;72.83;100620.81;;;;-53
2021/09/13 07:16:10;;;;;;;2.07;1.90;;;;;;;20.90;72.80;100617.06;;;;-52
2021/09/13 07:19:10;;;;;;;2.00;1.90;;;;;;;20.90;72.80;100616.66;;;;-52
2021/09/13 07:22:10;;;;;;;1.88;1.78;;;;;;;20.89;72.85;100615.01;;;;-53
2021/09/13 07:25:10;;;;;;;1.89;1.79;;;;;;;20.89;72.86;100613.87;;;;-54
2021/09/13 07:28:10;;;;;;;1.97;1.87;;;;;;;20.89;72.90;100615.17;;;;-52
2021/09/13 07:31:10;;;;;;;1.90;1.80;;;;;;;20.89;72.86;100618.75;;;;-52
2021/09/13 07:34:10;;;;;;;2.07;1.97;;;;;;;20.89;72.89;100614.69;;;;-53
2021/09/13 07:37:10;;;;;;;5.33;3.53;;;;;;;20.86;71.71;100610.62;;;;-54
2021/09/13 07:40:10;;;;;;;4.55;3.51;;;;;;;20.78;71.15;100612.80;;;;-54
2021/09/13 07:43:10;;;;;;;4.75;4.03;;;;;;;20.73;70.70;100615.15;;;;-58
2021/09/13 07:46:09;;;;;;;4.91;4.28;;;;;;;20.68;70.65;100619.27;;;;-60
2021/09/13 07:49:10;;;;;;;5.39;4.36;;;;;;;20.65;70.48;100623.75;;;;-51
2021/09/13 07:52:10;;;;;;;7.01;4.95;;;;;;;20.62;70.30;100619.32;;;;-51
2021/09/13 07:55:10;;;;;;;6.29;4.53;;;;;;;20.60;70.23;100616.55;;;;-60
2021/09/13 07:58:10;;;;;;;4.79;4.17;;;;;;;20.66;70.67;100619.17;;;;-58
2021/09/13 08:01:10;;;;;;;6.97;4.22;;;;;;;20.72;70.98;100618.23;;;;-58
2021/09/13 08:04:10;;;;;;;9.67;4.07;;;;;;;20.74;71.32;100616.45;;;;-61
2021/09/13 08:07:10;;;;;;;7.00;3.91;;;;;;;20.76;71.29;100618.24;;;;-61
2021/09/13 08:10:10;;;;;;;8.19;3.65;;;;;;;20.78;71.32;100621.19;;;;-61
2021/09/13 08:13:10;;;;;;;9.31;3.85;;;;;;;20.79;71.26;100621.11;;;;-60
2021/09/13 08:16:10;;;;;;;5.71;3.57;;;;;;;20.80;71.37;100622.82;;;;-60
2021/09/13 08:19:10;;;;;;;4.95;3.49;;;;;;;20.80;71.40;100627.05;;;;-60
2021/09/13 08:22:10;;;;;;;4.51;3.36;;;;;;;20.81;71.52;100632.73;;;;-52
2021/09/13 08:25:10;;;;;;;5.13;3.51;;;;;;;20.81;71.49;100639.66;;;;-52
2021/09/13 08:28:12;;;;;;;7.03;3.70;;;;;;;20.80;70.81;100642.12;;;;-59
2021/09/13 08:31:10;;;;;;;8.15;4.33;;;;;;;20.78;70.87;100637.31;;;;-53
2021/09/13 08:34:11;;;;;;;7.12;3.83;;;;;;;20.78;71.17;100644.72;;;;-58
2021/09/13 08:37:10;;;;;;;5.86;3.69;;;;;;;20.78;71.22;100641.70;;;;-54
2021/09/13 08:40:10;;;;;;;6.70;3.68;;;;;;;20.79;71.30;100646.98;;;;-61
2021/09/13 08:43:10;;;;;;;7.58;3.55;;;;;;;20.79;71.38;100647.23;;;;-60
2021/09/13 08:46:14;;;;;;;5.95;3.97;;;;;;;20.79;71.49;100643.97;;;;-54
2021/09/13 08:49:11;;;;;;;4.95;3.57;;;;;;;20.80;71.48;100646.12;;;;-53
2021/09/13 08:52:10;;;;;;;4.95;3.43;;;;;;;20.80;71.47;100646.27;;;;-52
2021/09/13 08:55:10;;;;;;;6.33;3.54;;;;;;;20.81;71.55;100645.05;;;;-61
2021/09/13 08:58:10;;;;;;;5.03;3.37;;;;;;;20.81;71.56;100650.02;;;;-61
2021/09/13 09:01:10;;;;;;;4.01;3.21;;;;;;;20.80;71.62;100651.32;;;;-60
2021/09/13 09:04:10;;;;;;;3.85;3.32;;;;;;;20.81;71.67;100650.75;;;;-60
2021/09/13 09:07:10;;;;;;;4.32;3.27;;;;;;;20.81;71.67;100653.68;;;;-61
2021/09/13 09:10:10;;;;;;;3.87;3.27;;;;;;;20.80;71.74;100652.46;;;;-60
2021/09/13 09:13:11;;;;;;;5.12;3.29;;;;;;;20.81;71.78;100655.96;;;;-60
2021/09/13 09:16:10;;;;;;;4.80;3.03;;;;;;;20.81;71.78;100657.43;;;;-54
2021/09/13 09:19:09;;;;;;;3.48;3.17;;;;;;;20.81;71.86;100656.12;;;;-53
2021/09/13 09:22:10;;;;;;;4.13;2.90;;;;;;;20.81;71.81;100658.97;;;;-54
2021/09/13 09:25:10;;;;;;;4.40;3.13;;;;;;;20.81;71.87;100656.05;;;;-54
2021/09/13 09:28:11;;;;;;;4.53;3.02;;;;;;;20.81;71.87;100656.53;;;;-54
2021/09/13 09:31:10;;;;;;;6.11;3.59;;;;;;;20.79;71.95;100655.70;;;;-53
2021/09/13 09:34:10;;;;;;;5.11;2.96;;;;;;;20.80;71.89;100652.95;;;;-52
2021/09/13 09:37:10;;;;;;;4.59;3.17;;;;;;;20.81;71.88;100649.77;;;;-61
2021/09/13 09:40:10;;;;;;;4.33;3.09;;;;;;;20.81;71.93;100645.05;;;;-60
2021/09/13 09:43:10;;;;;;;3.38;2.81;;;;;;;20.80;71.93;100643.91;;;;-54
2021/09/13 09:46:10;;;;;;;3.33;2.90;;;;;;;20.80;71.95;100638.95;;;;-60
2021/09/13 09:49:10;;;;;;;3.32;2.90;;;;;;;20.79;71.97;100636.31;;;;-61
2021/09/13 09:52:10;;;;;;;3.77;3.11;;;;;;;20.80;71.99;100635.53;;;;-61
2021/09/13 09:55:10;;;;;;;3.57;3.05;;;;;;;20.79;72.05;100632.03;;;;-61
2021/09/13 09:58:10;;;;;;;4.04;3.29;;;;;;;20.80;72.09;100632.02;;;;-61
2021/09/13 10:01:10;;;;;;;3.30;2.95;;;;;;;20.80;72.05;100625.83;;;;-61
2021/09/13 10:04:10;;;;;;;4.57;2.84;;;;;;;20.80;72.05;100625.50;;;;-60
2021/09/13 10:07:10;;;;;;;3.25;2.85;;;;;;;20.79;72.06;100621.11;;;;-53
2021/09/13 10:10:10;;;;;;;3.15;2.86;;;;;;;20.79;72.06;100618.50;;;;-60
2021/09/13 10:13:10;;;;;;;4.53;2.71;;;;;;;20.80;72.06;100614.52;;;;-54
2021/09/13 10:16:09;;;;;;;3.27;2.62;;;;;;;20.80;72.10;100610.76;;;;-53
2021/09/13 10:19:10;;;;;;;3.24;2.94;;;;;;;20.81;72.12;100606.52;;;;-54
2021/09/13 10:22:10;;;;;;;3.97;2.90;;;;;;;20.81;72.10;100597.97;;;;-53
2021/09/13 10:25:10;;;;;;;2.70;2.49;;;;;;;20.80;72.05;100593.25;;;;-54
2021/09/13 10:28:10;;;;;;;5.16;2.93;;;;;;;20.80;72.16;100595.12;;;;-53
2021/09/13 10:31:10;;;;;;;2.91;2.60;;;;;;;20.80;72.12;100590.56;;;;-61
2021/09/13 10:34:09;;;;;;;6.77;3.09;;;;;;;20.81;72.31;100588.52;;;;-56
2021/09/13 10:37:10;;;;;;;5.63;3.03;;;;;;;20.81;72.33;100580.05;;;;-57
2021/09/13 10:40:10;;;;;;;5.43;2.84;;;;;;;20.81;72.27;100572.80;;;;-56
2021/09/13 10:43:10;;;;;;;5.22;2.93;;;;;;;20.81;72.26;100564.89;;;;-51
2021/09/13 10:46:10;;;;;;;5.13;2.89;;;;;;;20.81;72.26;100565.55;;;;-57
2021/09/13 10:49:10;;;;;;;4.69;2.74;;;;;;;20.81;72.27;100558.38;;;;-57
2021/09/13 10:52:09;;;;;;;3.23;2.59;;;;;;;20.81;72.24;100558.30;;;;-51
2021/09/13 10:55:11;;;;;;;3.45;2.91;;;;;;;20.81;72.22;100554.55;;;;-56
2021/09/13 10:58:12;;;;;;;5.12;2.91;;;;;;;20.81;72.25;100550.39;;;;-50
2021/09/13 11:01:10;;;;;;;4.20;2.79;;;;;;;20.80;72.20;100544.38;;;;-49
2021/09/13 11:04:10;;;;;;;3.27;2.76;;;;;;;20.81;72.21;100548.44;;;;-51
2021/09/13 11:07:13;;;;;;;3.95;2.83;;;;;;;20.81;72.23;100542.50;;;;-56
2021/09/13 11:10:09;;;;;;;3.39;2.73;;;;;;;20.80;72.26;100540.55;;;;-57
2021/09/13 11:13:10;;;;;;;3.01;2.72;;;;;;;20.81;72.31;100535.16;;;;-52
2021/09/13 11:16:10;;;;;;;3.23;2.43;;;;;;;20.80;72.27;100537.45;;;;-52
2021/09/13 11:19:12;;;;;;;3.09;2.72;;;;;;;20.81;72.21;100534.03;;;;-49
2021/09/13 11:22:10;;;;;;;3.19;2.85;;;;;;;20.80;72.28;100536.07;;;;-49
2021/09/13 11:25:10;;;;;;;3.84;2.66;;;;;;;20.80;72.31;100533.70;;;;-49
2021/09/13 11:28:09;;;;;;;3.49;2.63;;;;;;;20.80;72.25;100531.75;;;;-52
2021/09/13 11:31:10;;;;;;;3.07;2.66;;;;;;;20.80;72.23;100528.83;;;;-51
2021/09/13 11:34:10;;;;;;;4.49;2.92;;;;;;;20.80;72.41;100533.06;;;;-62
2021/09/13 11:37:10;;;;;;;7.45;2.90;;;;;;;20.82;72.44;100534.69;;;;-62
2021/09/13 11:40:10;;;;;;;8.23;2.75;;;;;;;20.84;72.53;100535.51;;;;-61
2021/09/13 11:43:11;;;;;;;6.69;2.75;;;;;;;20.86;72.52;100532.02;;;;-60
2021/09/13 11:46:09;;;;;;;6.99;2.83;;;;;;;20.88;72.58;100522.56;;;;-60
2021/09/13 11:49:10;;;;;;;6.42;2.79;;;;;;;20.89;72.58;100521.90;;;;-55
2021/09/13 11:52:10;;;;;;;4.14;2.79;;;;;;;20.91;72.64;100517.59;;;;-56
2021/09/13 11:55:10;;;;;;;4.79;2.67;;;;;;;20.93;72.75;100515.47;;;;-54
2021/09/13 11:58:10;;;;;;;5.39;3.11;;;;;;;20.95;72.72;100512.71;;;;-52
2021/09/13 12:01:10;;;;;;;3.09;2.67;;;;;;;20.96;72.73;100509.46;;;;-60
2021/09/13 12:04:09;;;;;;;3.99;2.75;;;;;;;20.98;72.76;100509.70;;;;-51
2021/09/13 12:07:10;;;;;;;4.40;2.81;;;;;;;20.98;72.76;100508.24;;;;-49
2021/09/13 12:10:10;;;;;;;6.33;2.73;;;;;;;21.00;72.78;100511.02;;;;-52
2021/09/13 12:13:09;;;;;;;4.15;2.62;;;;;;;21.02;72.70;100500.16;;;;-59
2021/09/13 12:16:09;;;;;;;3.43;2.61;;;;;;;21.02;72.70;100491.77;;;;-59
2021/09/13 12:19:09;;;;;;;3.60;2.78;;;;;;;21.05;72.72;100494.23;;;;-60
2021/09/13 12:22:10;;;;;;;3.11;2.54;;;;;;;21.06;72.74;100492.75;;;;-61
2021/09/13 12:25:10;;;;;;;4.93;2.71;;;;;;;21.06;72.75;100494.30;;;;-55
2021/09/13 12:28:10;;;;;;;4.55;2.65;;;;;;;21.07;72.73;100488.20;;;;-61
2021/09/13 12:31:09;;;;;;;3.81;2.67;;;;;;;21.08;72.73;100485.36;;;;-59
2021/09/13 12:34:10;;;;;;;5.14;2.51;;;;;;;21.09;72.70;100480.05;;;;-58
2021/09/13 12:37:09;;;;;;;3.89;2.66;;;;;;;21.10;72.69;100480.03;;;;-60
2021/09/13 12:40:11;;;;;;;3.85;2.54;;;;;;;21.12;72.69;100478.00;;;;-59
2021/09/13 12:43:09;;;;;;;3.45;2.65;;;;;;;21.14;72.66;100470.83;;;;-60
2021/09/13 12:46:10;;;;;;;5.21;2.70;;;;;;;21.14;72.66;100471.64;;;;-56
2021/09/13 12:49:09;;;;;;;5.83;2.59;;;;;;;21.15;72.73;100466.69;;;;-56
2021/09/13 12:52:09;;;;;;;3.02;2.58;;;;;;;21.16;72.72;100461.38;;;;-56
2021/09/13 12:55:09;;;;;;;4.83;2.59;;;;;;;21.16;72.69;100454.93;;;;-55
2021/09/13 12:58:09;;;;;;;7.17;2.85;;;;;;;21.18;72.55;100450.69;;;;-52
2021/09/13 13:01:09;;;;;;;4.72;2.61;;;;;;;21.19;72.47;100443.63;;;;-59
2021/09/13 13:04:09;;;;;;;9.94;2.74;;;;;;;21.22;72.60;100436.43;;;;-65
2021/09/13 13:07:09;;;;;;;5.31;2.51;;;;;;;21.22;72.56;100428.44;;;;-46
2021/09/13 13:10:09;;;;;;;5.78;2.79;;;;;;;21.23;72.64;100426.80;;;;-54
2021/09/13 13:13:09;;;;;;;7.30;2.44;;;;;;;21.24;72.57;100423.97;;;;-62
2021/09/13 13:16:10;;;;;;;4.37;2.65;;;;;;;21.24;72.68;100418.34;;;;-60
2021/09/13 13:19:09;;;;;;;5.00;2.61;;;;;;;21.25;72.59;100420.44;;;;-62
2021/09/13 13:22:10;;;;;;;3.99;2.67;;;;;;;21.26;72.60;100419.97;;;;-54
2021/09/13 13:25:09;;;;;;;3.49;2.55;;;;;;;21.26;72.53;100415.31;;;;-54
2021/09/13 13:28:09;;;;;;;3.81;2.51;;;;;;;21.26;72.52;100420.53;;;;-57
2021/09/13 13:31:09;;;;;;;4.20;2.44;;;;;;;21.28;72.52;100410.34;;;;-53
2021/09/13 13:34:09;;;;;;;5.65;2.51;;;;;;;21.28;72.45;100412.45;;;;-66
2021/09/13 13:37:09;;;;;;;4.05;2.38;;;;;;;21.29;72.50;100407.02;;;;-51
2021/09/13 13:40:09;;;;;;;7.74;2.60;;;;;;;21.30;72.41;100404.88;;;;-49
2021/09/13 13:43:10;;;;;;;6.63;2.53;;;;;;;21.29;72.44;100404.46;;;;-62
2021/09/13 13:46:09;;;;;;;3.61;2.58;;;;;;;21.27;72.45;100408.07;;;;-61
2021/09/13 13:49:10;;;;;;;2.80;2.30;;;;;;;21.29;72.42;100412.28;;;;-49
2021/09/13 13:52:09;;;;;;;7.54;3.82;;;;;;;21.27;72.41;100407.72;;;;-49
2021/09/13 13:55:09;;;;;;;165.43;151.02;;;;;;;21.26;72.35;100403.74;;;;-49
2021/09/13 13:58:09;;;;;;;4.77;2.38;;;;;;;21.26;72.35;100405.53;;;;-51
2021/09/13 14:01:09;;;;;;;4.21;2.55;;;;;;;21.26;72.41;100403.25;;;;-62
2021/09/13 14:04:09;;;;;;;5.73;2.42;;;;;;;21.26;72.36;100403.49;;;;-57
2021/09/13 14:07:10;;;;;;;7.06;2.56;;;;;;;21.25;72.38;100404.48;;;;-61
2021/09/13 14:10:10;;;;;;;5.62;2.47;;;;;;;21.27;72.37;100402.51;;;;-58
2021/09/13 14:13:09;;;;;;;4.97;2.50;;;;;;;21.27;72.34;100402.94;;;;-57
2021/09/13 14:16:10;;;;;;;8.44;2.47;;;;;;;21.29;72.33;100407.55;;;;-52
2021/09/13 14:19:09;;;;;;;4.15;2.39;;;;;;;21.30;72.31;100403.81;;;;-59
2021/09/13 14:22:09;;;;;;;2.60;2.33;;;;;;;21.31;72.42;100395.44;;;;-56
2021/09/13 14:25:09;;;;;;;3.71;2.35;;;;;;;21.33;72.42;100396.96;;;;-60
2021/09/13 14:28:09;;;;;;;4.18;2.53;;;;;;;21.33;72.39;100398.36;;;;-62
2021/09/13 14:31:09;;;;;;;4.66;2.45;;;;;;;21.35;72.40;100394.84;;;;-58
2021/09/13 14:34:09;;;;;;;4.95;2.49;;;;;;;21.35;72.43;100391.58;;;;-60
2021/09/13 14:37:10;;;;;;;4.91;2.38;;;;;;;21.36;72.33;100387.67;;;;-61
2021/09/13 14:40:09;;;;;;;4.98;2.41;;;;;;;21.37;72.34;100385.53;;;;-61
2021/09/13 14:43:10;;;;;;;4.09;2.33;;;;;;;21.37;72.33;100380.97;;;;-59
2021/09/13 14:46:09;;;;;;;3.39;2.41;;;;;;;21.37;72.39;100378.14;;;;-57
2021/09/13 14:49:09;;;;;;;4.06;2.46;;;;;;;21.38;72.39;100370.88;;;;-60
2021/09/13 14:52:10;;;;;;;6.47;2.63;;;;;;;21.38;72.39;100370.45;;;;-65
2021/09/13 14:55:10;;;;;;;3.85;2.30;;;;;;;21.39;72.43;100373.41;;;;-62
2021/09/13 14:58:10;;;;;;;2.95;2.19;;;;;;;21.40;72.39;100369.73;;;;-61
2021/09/13 15:01:09;;;;;;;2.73;2.29;;;;;;;21.41;72.42;100369.05;;;;-61
2021/09/13 15:04:10;;;;;;;4.74;2.33;;;;;;;21.41;72.34;100370.86;;;;-65
2021/09/13 15:07:09;;;;;;;3.61;2.46;;;;;;;21.40;72.35;100370.38;;;;-66
2021/09/13 15:10:09;;;;;;;3.30;2.29;;;;;;;21.39;72.31;100371.45;;;;-66
2021/09/13 15:13:11;;;;;;;3.81;2.26;;;;;;;21.39;72.33;100369.05;;;;-66
2021/09/13 15:16:09;;;;;;;4.17;2.31;;;;;;;21.39;72.29;100370.85;;;;-64
2021/09/13 15:19:09;;;;;;;3.21;2.35;;;;;;;21.37;72.20;100365.89;;;;-60
2021/09/13 15:22:09;;;;;;;2.64;2.41;;;;;;;21.38;72.39;100362.15;;;;-49
2021/09/13 15:25:10;;;;;;;3.65;2.33;;;;;;;21.39;72.36;100355.61;;;;-48
2021/09/13 15:28:09;;;;;;;3.95;2.23;;;;;;;21.39;72.39;100357.89;;;;-48
2021/09/13 15:31:10;;;;;;;3.55;2.35;;;;;;;21.40;72.36;100356.84;;;;-55
2021/09/13 15:34:09;;;;;;;3.03;2.26;;;;;;;21.42;72.43;100357.93;;;;-52
2021/09/13 15:37:09;;;;;;;6.21;2.22;;;;;;;21.39;72.27;100356.77;;;;-51
2021/09/13 15:40:09;;;;;;;3.30;2.38;;;;;;;21.40;72.36;100356.92;;;;-56
2021/09/13 15:43:09;;;;;;;4.74;2.24;;;;;;;21.40;72.27;100355.45;;;;-56
2021/09/13 15:46:09;;;;;;;4.68;2.07;;;;;;;21.39;72.22;100350.25;;;;-55
2021/09/13 15:49:09;;;;;;;3.81;2.52;;;;;;;21.39;72.17;100347.38;;;;-55
2021/09/13 15:52:09;;;;;;;2.43;2.16;;;;;;;21.38;72.19;100343.23;;;;-55
2021/09/13 15:55:09;;;;;;;4.45;2.39;;;;;;;21.38;72.19;100344.38;;;;-61
2021/09/13 15:58:09;;;;;;;3.11;2.25;;;;;;;21.37;72.18;100348.68;;;;-60
2021/09/13 16:01:09;;;;;;;5.76;2.43;;;;;;;21.36;72.13;100349.36;;;;-60
2021/09/13 16:04:09;;;;;;;2.68;1.99;;;;;;;21.37;72.21;100349.84;;;;-60
2021/09/13 16:07:10;;;;;;;2.45;2.12;;;;;;;21.36;72.29;100351.47;;;;-64
2021/09/13 16:10:10;;;;;;;2.59;2.09;;;;;;;21.38;72.20;100352.29;;;;-62
2021/09/13 16:13:09;;;;;;;2.60;2.17;;;;;;;21.39;72.26;100352.02;;;;-57
2021/09/13 16:16:09;;;;;;;3.81;2.21;;;;;;;21.40;72.23;100352.11;;;;-57
2021/09/13 16:19:09;;;;;;;3.82;2.25;;;;;;;21.42;72.23;100354.07;;;;-58
2021/09/13 16:22:09;;;;;;;4.95;2.43;;;;;;;21.43;72.31;100355.80;;;;-57
2021/09/13 16:25:12;;;;;;;2.09;1.91;;;;;;;21.44;72.24;100357.34;;;;-59
2021/09/13 16:28:09;;;;;;;6.96;2.24;;;;;;;21.45;72.33;100360.92;;;;-58
2021/09/13 16:31:11;;;;;;;4.67;2.41;;;;;;;21.46;72.31;100364.09;;;;-60
2021/09/13 16:34:09;;;;;;;5.78;2.13;;;;;;;21.46;72.34;100367.95;;;;-61
2021/09/13 16:37:10;;;;;;;5.45;2.19;;;;;;;21.47;72.37;100368.66;;;;-56
2021/09/13 16:40:09;;;;;;;3.94;2.17;;;;;;;21.49;72.35;100370.45;;;;-54
2021/09/13 16:43:09;;;;;;;3.65;2.12;;;;;;;21.49;72.40;100366.37;;;;-52